lesarnaques.com alexa rank chart, lesarnaques.com alexa rank daily changes

lesarnaques.com alexa rank chart, lesarnaques.com alexa rank daily changes

lesarnaques.com
Actual rank:
322 428

RANK HISTORY

Date Rank Diff
2018/07/23 322 428 +98 901
2018/07/22 223 527 +86 735
2018/07/21 136 792 -171 460
2018/07/20 308 252 +134 647
2018/07/19 173 605 -67 678
2018/07/18 241 283 +148 370
2018/07/17 92 913 -135 651
2018/07/15 228 564 +30 613
2018/07/14 197 951 -226 015
2018/07/13 423 966 +316 009
2018/07/11 107 957 -239 576
2018/07/10 347 533 +210 343
2018/07/09 137 190 -18 737
2018/07/08 155 927 -14 204
2018/07/07 170 131 -262 246
2018/07/06 432 377 +35 505
2018/07/05 396 872 -50 550
2018/07/04 447 422 +88 415
2018/07/03 359 007 +20 107
2018/07/02 338 900 +127 177
2018/07/01 211 723 -39 898
2018/06/30 251 621 +47 525
2018/06/28 204 096 -212 898
2018/06/27 416 994 -14 284
2018/06/23 431 278 +234 401
2018/06/21 196 877 -62 236
2018/06/20 259 113 +136 039
2018/06/18 123 074 -79 303
2018/06/17 202 377 -65 330
2018/06/15 267 707 -5 645
2018/06/14 273 352 -57 147
2018/06/12 330 499 +117 568
2018/06/11 212 931 -72 227
2018/06/10 285 158 +19 831
2018/06/09 265 327 +108 317
2018/06/08 157 010 -115 613
2018/06/07 272 623 +139 099
2018/06/06 133 524 +16 752
2018/06/03 116 772 -142 598
2018/06/02 259 370 -115 368
2018/06/01 374 738 +173 368
2018/05/31 201 370 +2 607
2018/05/30 198 763 -194 394
2018/05/29 393 157 +99 245
2018/05/28 293 912 +112 087
2018/05/27 181 825 -260 910
2018/05/26 442 735 +143 159
2018/05/25 299 576 -155 349
2018/05/24 454 925

WIDGET FOR YOUR SITE

DOMAINS WITH THE NEAREST RANK

Domain Rank
les-rh.fr 322 423
les4temps.com 322 424
lesacados.com 322 425
lesanneesrecre.com 322 426
lesarbres.fr 322 427
lesarnaques.com 322 428
lesbaladinsdumont.com 322 429
lesbauxdeprovence.com 322 430
lesbellesenvies.com 322 431
lesbieresdecharlotte.fr 322 432
lesbonnesaffairesduweb.com 322 433

DOMAINS WITH THE NEAREST RANK BY TLD .com

Domain Rank
les-papiers-de-lucas.com 322 420
les-perles-rouges.com 322 421
les4temps.com 322 424
lesacados.com 322 425
lesanneesrecre.com 322 426
lesarnaques.com 322 428
lesbaladinsdumont.com 322 429
lesbauxdeprovence.com 322 430
lesbellesenvies.com 322 431
lesbonnesaffairesduweb.com 322 433
lescommunes.com 322 438